createdAt,value
2018-08-31T00:03:03.172Z,9.52
2018-08-31T00:07:03.921Z,9.12
2018-08-31T00:09:04.691Z,8.64
2018-08-31T00:13:05.430Z,8.87
2018-08-31T00:19:06.204Z,9.41
2018-08-31T00:23:06.903Z,9.46
2018-08-31T00:29:07.699Z,9.52
2018-08-31T00:33:08.322Z,9.46
2018-08-31T00:35:08.933Z,9.55
2018-08-31T00:39:09.702Z,9.88
2018-08-31T00:45:10.980Z,10.21
2018-08-31T00:49:11.719Z,10.15
2018-08-31T00:55:12.403Z,10.4
2018-08-31T00:59:13.186Z,10.2
2018-08-31T01:01:13.923Z,11.06
2018-08-31T01:05:14.662Z,9.82
2018-08-31T01:11:15.460Z,10.32
2018-08-31T01:15:16.392Z,10.56
2018-08-31T01:21:17.533Z,10.81
2018-08-31T01:25:18.244Z,11.22
2018-08-31T01:27:18.885Z,10.55
2018-08-31T01:31:19.710Z,9.55
2018-08-31T01:37:20.451Z,10.95
2018-08-31T01:41:21.095Z,9.64
2018-08-31T01:47:21.981Z,9.52
2018-08-31T01:51:22.679Z,8.83
2018-08-31T01:53:23.387Z,9.94
2018-08-31T01:57:24.156Z,9.54
2018-08-31T02:03:24.927Z,9.34
2018-08-31T02:07:25.618Z,8.98
2018-08-31T02:13:26.372Z,10.12
2018-08-31T02:17:27.105Z,9.24
2018-08-31T02:19:27.907Z,9.42
2018-08-31T02:23:28.665Z,9.26
2018-08-31T02:29:29.359Z,10.25
2018-08-31T02:33:30.130Z,9.93
2018-08-31T02:39:30.795Z,10.3
2018-08-31T02:43:31.547Z,9.57
2018-08-31T02:45:32.272Z,9.7
2018-08-31T02:49:32.916Z,9.46
2018-08-31T02:55:33.693Z,10.11
2018-08-31T02:59:34.419Z,9.93
2018-08-31T03:05:35.123Z,9.43
2018-08-31T03:11:35.878Z,9.93
2018-08-31T03:15:36.605Z,9.32
2018-08-31T03:21:37.295Z,9.62
2018-08-31T03:25:38.112Z,9.3
2018-08-31T03:31:38.912Z,9.58
2018-08-31T03:37:39.614Z,10.03
2018-08-31T03:41:41.099Z,8.96
2018-08-31T03:47:41.902Z,9.59
2018-08-31T03:51:42.633Z,9.28
2018-08-31T03:57:43.346Z,9.93
2018-08-31T04:03:44.170Z,10.34
2018-08-31T04:07:44.848Z,10.07
2018-08-31T04:13:45.668Z,10.91
2018-08-31T04:17:46.514Z,10.41
2018-08-31T04:23:47.201Z,10.85
2018-08-31T04:29:47.973Z,11.28
2018-08-31T04:33:48.617Z,10.78
2018-08-31T04:39:49.345Z,11.63
2018-08-31T04:43:50.130Z,10.58
2018-08-31T04:49:50.908Z,11.65
2018-08-31T04:55:51.594Z,12.08
2018-08-31T04:59:52.424Z,11.7
2018-08-31T05:05:53.170Z,13.34
2018-08-31T05:09:53.896Z,12.38
2018-08-31T05:15:54.621Z,13.53
2018-08-31T05:21:55.326Z,13.86
2018-08-31T05:25:56.052Z,12.87
2018-08-31T05:31:56.826Z,13.37
2018-08-31T05:35:57.569Z,13.1
2018-08-31T05:37:58.298Z,13.64
2018-08-31T05:41:59.071Z,12.65
2018-08-31T05:47:59.755Z,12.38
2018-08-31T05:52:00.511Z,12.47
2018-08-31T05:58:01.305Z,11.15
2018-08-31T06:02:02.035Z,11.54
2018-08-31T06:04:02.588Z,12
2018-08-31T06:08:03.309Z,12.13
2018-08-31T06:14:04.015Z,11.9
2018-08-31T06:18:04.805Z,10.76
2018-08-31T06:24:05.515Z,13.06
2018-08-31T06:28:06.264Z,11.71
2018-08-31T06:30:07.400Z,12.79
2018-08-31T06:34:08.146Z,12.28
2018-08-31T06:40:08.883Z,12.95
2018-08-31T06:44:09.728Z,12.91
2018-08-31T06:50:10.498Z,12.87
2018-08-31T06:54:11.197Z,12.18
2018-08-31T06:56:12.430Z,12.34
2018-08-31T07:00:13.461Z,12.15
2018-08-31T07:06:14.232Z,12.73
2018-08-31T07:10:14.909Z,12.28
2018-08-31T07:16:15.705Z,13.24
2018-08-31T07:20:16.392Z,11.86
2018-08-31T07:22:17.147Z,12.58
2018-08-31T07:26:17.941Z,12.02
2018-08-31T07:32:18.793Z,11.34
2018-08-31T07:36:19.518Z,10.96
2018-08-31T07:42:20.114Z,13.71
2018-08-31T07:46:20.894Z,14.19
2018-08-31T07:48:21.746Z,14.38
2018-08-31T07:52:22.466Z,14.99
2018-08-31T07:58:23.120Z,14.45
2018-08-31T08:02:23.858Z,14.66
2018-08-31T08:08:24.615Z,12.71
2018-08-31T08:14:25.277Z,12.08
2018-08-31T08:18:25.881Z,12.86
2018-08-31T08:24:26.559Z,12.74
2018-08-31T08:28:27.344Z,12.33
2018-08-31T08:34:28.089Z,11.79
2018-08-31T08:40:28.871Z,11.34
2018-08-31T08:44:29.552Z,11.98
2018-08-31T08:50:30.290Z,13.18
2018-08-31T08:54:31.752Z,12.78
2018-08-31T09:00:33.228Z,12.7
2018-08-31T09:06:35.093Z,13.12
2018-08-31T09:10:36.514Z,13.69
2018-08-31T09:16:37.299Z,12.19
2018-08-31T09:20:38.376Z,12.77
2018-08-31T09:26:39.681Z,11.47
2018-08-31T09:32:40.479Z,10.49
2018-08-31T09:36:41.326Z,9.45
2018-08-31T09:42:42.207Z,10.63
2018-08-31T09:46:43.048Z,10.22
2018-08-31T09:52:44.121Z,10.82
2018-08-31T09:58:44.851Z,10.39
2018-08-31T10:02:45.707Z,10.2
2018-08-31T10:08:46.442Z,10.7
2018-08-31T10:12:47.137Z,9.95
2018-08-31T10:18:48.029Z,9.91
2018-08-31T10:24:49.307Z,10.77
2018-08-31T10:28:50.045Z,10.75
2018-08-31T10:34:50.832Z,10.85
2018-08-31T10:38:52.110Z,11.18
2018-08-31T10:44:53.281Z,9.72
2018-08-31T10:50:54.862Z,10.29
2018-08-31T10:54:56.401Z,10.08
2018-08-31T11:00:58.084Z,11.07
2018-08-31T11:04:58.849Z,10.05
2018-08-31T11:10:59.609Z,10.6
2018-08-31T11:17:01.212Z,10.99
2018-08-31T11:21:02.655Z,11.55
2018-08-31T11:27:04.444Z,10.98
2018-08-31T11:31:06.058Z,10.19
2018-08-31T11:37:07.712Z,11.05
2018-08-31T11:43:09.422Z,11.48
2018-08-31T11:47:10.992Z,11.62
2018-08-31T11:53:12.571Z,11.87
2018-08-31T11:57:14.518Z,11.93
2018-08-31T12:03:16.119Z,11.92
2018-08-31T12:09:22.513Z,11.86
2018-08-31T12:13:23.265Z,12.07
2018-08-31T12:19:24.009Z,12
2018-08-31T12:23:24.784Z,11.53
2018-08-31T12:29:26.394Z,11.07
2018-08-31T12:35:27.364Z,13.57
2018-08-31T12:39:28.996Z,15.13
2018-08-31T12:45:30.279Z,7.94
2018-08-31T12:49:31.266Z,7.17
2018-08-31T12:55:32.588Z,6.74
2018-08-31T13:01:33.383Z,8.28
2018-08-31T13:05:34.132Z,8.42
2018-08-31T13:11:35.164Z,8.85
2018-08-31T13:15:36.773Z,9.94
2018-08-31T13:21:37.591Z,9.83
2018-08-31T13:27:38.320Z,10.56
2018-08-31T13:31:39.065Z,11.03
2018-08-31T13:37:39.861Z,11.22
2018-08-31T13:41:40.583Z,11.45
2018-08-31T13:47:41.632Z,9
2018-08-31T13:53:42.398Z,7.83
2018-08-31T13:57:43.075Z,7.93
2018-08-31T14:03:44.497Z,8.14
2018-08-31T14:07:45.221Z,8.2
2018-08-31T14:09:45.911Z,8.14
2018-08-31T14:13:46.693Z,8.46
2018-08-31T14:19:47.449Z,8.6
2018-08-31T14:23:48.159Z,9.04
2018-08-31T14:29:49.145Z,8.49
2018-08-31T14:33:49.779Z,8.31
2018-08-31T14:35:50.656Z,8.46
2018-08-31T14:39:51.436Z,8.43
2018-08-31T14:45:52.231Z,8.88
2018-08-31T14:49:52.902Z,9.3
2018-08-31T14:55:53.648Z,9.56
2018-08-31T14:59:54.309Z,10.03
2018-08-31T15:01:55.117Z,9.88
2018-08-31T15:05:55.825Z,9.75
2018-08-31T15:11:56.569Z,11.69
2018-08-31T15:15:57.201Z,10.87
2018-08-31T15:21:57.934Z,10.69
2018-08-31T15:25:58.672Z,10.63
2018-08-31T15:27:59.428Z,10.97
2018-08-31T15:32:00.104Z,11.39
2018-08-31T15:38:00.867Z,10.09
2018-08-31T15:42:01.720Z,9.86
2018-08-31T15:48:02.380Z,10.24
2018-08-31T15:52:03.037Z,10
2018-08-31T15:54:03.704Z,10.53
2018-08-31T15:58:04.598Z,10.21
2018-08-31T16:04:05.255Z,11.11
2018-08-31T16:08:06.052Z,10.64
2018-08-31T16:14:06.856Z,10.92
2018-08-31T16:18:07.556Z,10.72
2018-08-31T16:20:08.302Z,11.53
2018-08-31T16:24:09.006Z,11.71
2018-08-31T16:30:10.019Z,13.38
2018-08-31T16:34:10.749Z,12.51
2018-08-31T16:40:11.517Z,13.39
2018-08-31T16:46:12.402Z,15.15
2018-08-31T16:50:13.087Z,14.71
2018-08-31T16:56:13.823Z,14.89
2018-08-31T17:00:14.963Z,14.22
2018-08-31T17:06:15.690Z,14.39
2018-08-31T17:12:16.366Z,14.66
2018-08-31T17:16:17.095Z,13.9
2018-08-31T17:22:17.961Z,13.82
2018-08-31T17:26:18.713Z,13.11
2018-08-31T17:32:19.416Z,14
2018-08-31T17:38:20.124Z,13.15
2018-08-31T17:42:20.784Z,12.91
2018-08-31T17:48:21.637Z,12.94
2018-08-31T17:52:27.346Z,12.06
2018-08-31T17:58:28.329Z,18.87
2018-08-31T18:04:29.055Z,14.26
2018-08-31T18:08:30.371Z,14.47
2018-08-31T18:14:31.192Z,16.63
2018-08-31T18:18:31.928Z,19.21
2018-08-31T18:24:32.667Z,16.27
2018-08-31T18:30:33.473Z,14.69
2018-08-31T18:34:34.364Z,14.44
2018-08-31T18:40:35.411Z,12.59
2018-08-31T18:44:35.876Z,12.74
2018-08-31T18:50:36.565Z,12.93
2018-08-31T18:56:37.427Z,13.88
2018-08-31T19:00:38.232Z,13.8
2018-08-31T19:06:39.041Z,13.11
2018-08-31T19:10:40.015Z,12.35
2018-08-31T19:16:40.736Z,11.98
2018-08-31T19:22:41.463Z,13.47
2018-08-31T19:26:42.372Z,13.43
2018-08-31T19:32:43.219Z,13.11
2018-08-31T19:36:43.942Z,13.84
2018-08-31T19:38:44.792Z,13.62
2018-08-31T19:42:45.452Z,14.41
2018-08-31T19:48:46.351Z,17.23
2018-08-31T19:52:46.968Z,15.91
2018-08-31T19:58:47.726Z,13.98
2018-08-31T20:02:48.483Z,13.04
2018-08-31T20:04:49.127Z,13.35
2018-08-31T20:08:49.885Z,13.57
2018-08-31T20:14:50.641Z,15.07
2018-08-31T20:18:51.368Z,14.51
2018-08-31T20:24:52.186Z,14.05
2018-08-31T20:28:52.988Z,12.97
2018-08-31T20:30:53.760Z,13.04
2018-08-31T20:34:54.412Z,13.07
2018-08-31T20:40:55.179Z,13.15
2018-08-31T20:51:06.534Z,13.63
2018-08-31T20:51:06.702Z,13.37
2018-08-31T20:55:07.458Z,12.56
2018-08-31T21:01:08.191Z,11.78
2018-08-31T21:07:09.027Z,12.98
2018-08-31T21:11:09.787Z,12.01
2018-08-31T21:17:10.697Z,12.87
2018-08-31T21:21:11.360Z,12.19
2018-08-31T21:27:12.097Z,12.48
2018-08-31T21:33:12.911Z,13.12
2018-08-31T21:37:13.757Z,12.28
2018-08-31T21:43:14.478Z,12.61
2018-08-31T21:47:15.196Z,12.65
2018-08-31T21:49:15.919Z,12.83
2018-08-31T21:53:16.685Z,12.9
2018-08-31T21:59:17.576Z,13.43
2018-08-31T22:03:18.306Z,13.48
2018-08-31T22:09:19.157Z,13.68
2018-08-31T22:13:19.953Z,13.22
2018-08-31T22:15:20.871Z,13.49
2018-08-31T22:19:21.593Z,13.24
2018-08-31T22:25:22.285Z,12.79
2018-08-31T22:29:23.069Z,13.18
2018-08-31T22:35:24.177Z,12.88
2018-08-31T22:39:25.183Z,12.77
2018-08-31T22:41:25.925Z,12.77
2018-08-31T22:45:27.401Z,12.71
2018-08-31T22:51:28.163Z,13
2018-08-31T22:55:28.904Z,12.25
2018-08-31T23:01:29.775Z,13
2018-08-31T23:05:30.608Z,13.35
2018-08-31T23:07:31.268Z,14.02
2018-08-31T23:11:31.956Z,12.84
2018-08-31T23:17:32.703Z,13.28
2018-08-31T23:21:33.416Z,12.94
2018-08-31T23:27:34.069Z,14.02
2018-08-31T23:31:34.815Z,13.39
2018-08-31T23:33:35.620Z,13.02
2018-08-31T23:37:36.340Z,13.43
2018-08-31T23:43:36.998Z,13.63
2018-08-31T23:47:37.637Z,13.35
2018-08-31T23:53:38.444Z,14.34
2018-08-31T23:57:39.116Z,13.75
2018-08-31T23:59:39.807Z,14
